Terminal Aerodrome Forecast
Issued by NWS Milwaukee/Sullivan, WI

Home | Current Version | Previous Version | Text Only | Print | Product List | Glossary On
Versions: 1 2 3 4 5 6 7 8 9 10 11 12 13 14 15 16 17 18 19 20 21 22 23 24 25 26 27 28 29 30 31 32 33
000
FTUS43 KMKX 241720
TAFMKE
TAF
KMKE 241720Z 2418/2524 22007KT P6SM OVC008
     FM242000 20008KT P6SM SCT008 BKN015
     FM242200 20006KT P6SM SCT020
     FM250200 21006KT P6SM BKN020
     FM250400 21005KT P6SM BKN030
     FM250700 25005KT P6SM BKN015
     FM251200 28007KT P6SM SCT150
     FM251500 29012KT P6SM FEW250
     FM251800 29013G23KT P6SM FEW250=

USA.gov is the U.S. government's official web portal to all federal, state and local government web resources and services.